createdAt,value
2023-08-25T00:00:47.915Z,101582.91
2023-08-25T00:05:56.354Z,101583.25
2023-08-25T00:10:58.678Z,101581.53
2023-08-25T00:16:01.149Z,101582.22
2023-08-25T00:21:03.536Z,101587.47
2023-08-25T00:26:05.775Z,101583.38
2023-08-25T00:31:08.156Z,101572.59
2023-08-25T00:36:10.398Z,101582.41
2023-08-25T00:41:12.698Z,101572.44
2023-08-25T00:46:15.673Z,101571.59
2023-08-25T00:51:18.725Z,101572.59
2023-08-25T00:56:21.265Z,101571.09
2023-08-25T01:01:24.773Z,101566.34
2023-08-25T01:06:27.047Z,101567.41
2023-08-25T01:11:42.824Z,101567.72
2023-08-25T01:16:48.947Z,101566.34
2023-08-25T01:21:58.818Z,101562.31
2023-08-25T01:27:01.611Z,101565.56
2023-08-25T01:32:04.429Z,101561.00
2023-08-25T01:37:27.928Z,101565.72
2023-08-25T01:42:31.277Z,101567.94
2023-08-25T01:47:35.947Z,101561.00
2023-08-25T01:52:40.533Z,101566.06
2023-08-25T01:57:42.952Z,101568.63
2023-08-25T02:02:45.293Z,101577.56
2023-08-25T02:07:47.611Z,101573.88
2023-08-25T02:12:49.870Z,101570.63
2023-08-25T02:17:52.695Z,101569.81
2023-08-25T02:22:55.115Z,101570.84
2023-08-25T02:27:58.286Z,101572.00
2023-08-25T02:33:01.050Z,101573.19
2023-08-25T02:38:07.380Z,101573.53
2023-08-25T02:43:10.065Z,101562.41
2023-08-25T02:48:12.294Z,101568.81
2023-08-25T02:53:14.651Z,101571.53
2023-08-25T02:58:17.066Z,101565.78
2023-08-25T03:03:21.110Z,101569.31
2023-08-25T03:08:25.084Z,101570.47
2023-08-25T03:13:27.885Z,101573.53
2023-08-25T03:18:32.052Z,101571.34
2023-08-25T03:23:37.222Z,101564.41
2023-08-25T03:28:39.584Z,101568.63
2023-08-25T03:33:41.866Z,101563.91
2023-08-25T03:38:44.024Z,101561.56
2023-08-25T03:43:49.040Z,101557.66
2023-08-25T03:48:51.342Z,101548.91
2023-08-25T03:53:53.576Z,101551.44
2023-08-25T03:58:55.836Z,101553.44
2023-08-25T04:03:59.833Z,101556.16
2023-08-25T04:09:02.775Z,101542.97
2023-08-25T04:14:05.359Z,101546.53
2023-08-25T04:19:11.361Z,101550.75
2023-08-25T04:24:13.818Z,101554.13
2023-08-25T04:29:16.119Z,101547.03
2023-08-25T04:34:19.307Z,101559.69
2023-08-25T04:39:21.578Z,101556.81
2023-08-25T04:44:24.022Z,101556.13
2023-08-25T04:49:28.489Z,101555.13
2023-08-25T04:54:30.814Z,101561.22
2023-08-25T04:59:36.272Z,101555.13
2023-08-25T05:04:38.780Z,101558.66
2023-08-25T05:09:41.076Z,101566.59
2023-08-25T05:14:43.374Z,101562.06
2023-08-25T05:19:45.616Z,101564.41
2023-08-25T05:24:48.010Z,101576.88
2023-08-25T05:29:50.743Z,101579.72
2023-08-25T05:34:58.710Z,101587.97
2023-08-25T05:40:01.374Z,101592.69
2023-08-25T05:45:08.699Z,101588.28
2023-08-25T05:50:11.259Z,101591.50
2023-08-25T05:55:14.889Z,101590.78
2023-08-25T06:00:18.930Z,101587.06
2023-08-25T06:05:21.160Z,101606.59
2023-08-25T06:10:23.455Z,101609.28
2023-08-25T06:15:27.461Z,101604.06
2023-08-25T06:20:32.037Z,101597.00
2023-08-25T06:25:34.698Z,101598.38
2023-08-25T06:30:39.722Z,101596.88
2023-08-25T06:35:42.040Z,101593.53
2023-08-25T06:40:44.499Z,101599.56
2023-08-25T06:45:47.928Z,101607.19
2023-08-25T06:50:50.321Z,101599.09
2023-08-25T06:55:52.520Z,101599.59
2023-08-25T07:00:55.362Z,101595.22
2023-08-25T07:05:59.658Z,101592.69
2023-08-25T07:11:02.067Z,101599.13
2023-08-25T07:16:05.406Z,101610.59
2023-08-25T07:21:07.850Z,101603.00
2023-08-25T07:26:13.450Z,101606.88
2023-08-25T07:31:15.746Z,101599.47
2023-08-25T07:36:21.008Z,101586.31
2023-08-25T07:41:23.675Z,101580.94
2023-08-25T07:46:26.024Z,101574.19
2023-08-25T07:51:39.598Z,101571.19
2023-08-25T07:56:43.409Z,101566.97
2023-08-25T08:01:46.629Z,101562.22
2023-08-25T08:06:50.065Z,101564.44
2023-08-25T08:11:52.390Z,101563.56
2023-08-25T08:16:54.788Z,101568.78
2023-08-25T08:21:57.102Z,101568.47
2023-08-25T08:26:59.797Z,101575.19
2023-08-25T08:32:02.066Z,101578.16
2023-08-25T08:37:07.056Z,101575.16
2023-08-25T08:42:11.013Z,101565.16
2023-08-25T08:47:13.516Z,101561.94
2023-08-25T08:52:18.281Z,101575.09
2023-08-25T08:57:21.440Z,101572.69
2023-08-25T09:02:28.517Z,101590.75
2023-08-25T09:07:32.869Z,101589.38
2023-08-25T09:12:36.575Z,101598.00
2023-08-25T09:17:39.964Z,101606.63
2023-08-25T09:22:42.563Z,101618.06
2023-08-25T09:27:45.000Z,101613.19
2023-08-25T09:32:48.088Z,101604.38
2023-08-25T09:37:51.956Z,101601.97
2023-08-25T09:43:12.493Z,101608.06
2023-08-25T09:48:15.745Z,101610.41
2023-08-25T09:53:18.656Z,101600.09
2023-08-25T09:58:20.710Z,101618.34
2023-08-25T10:03:23.711Z,101617.31
2023-08-25T10:08:26.209Z,101613.09
2023-08-25T10:13:30.138Z,101605.59
2023-08-25T10:18:40.180Z,101611.50
2023-08-25T10:23:44.573Z,101612.34
2023-08-25T10:28:47.666Z,101610.66
2023-08-25T10:33:54.810Z,101609.44
2023-08-25T10:38:59.973Z,101617.94
2023-08-25T10:44:02.323Z,101618.28
2023-08-25T10:49:09.610Z,101605.44
2023-08-25T10:54:21.583Z,101604.03
2023-08-25T10:59:26.054Z,101590.06
2023-08-25T11:04:31.216Z,101583.13
2023-08-25T11:09:34.869Z,101593.44
2023-08-25T11:14:39.475Z,101593.78
2023-08-25T11:19:41.881Z,101602.44
2023-08-25T11:24:46.200Z,101582.13
2023-08-25T11:29:50.649Z,101577.56
2023-08-25T11:34:52.897Z,101558.22
2023-08-25T11:39:55.161Z,101567.63
2023-08-25T11:44:57.255Z,101560.72
2023-08-25T11:50:01.485Z,101557.00
2023-08-25T11:55:03.910Z,101535.75
2023-08-25T12:00:09.097Z,101522.69
2023-08-25T12:05:11.533Z,101523.81
2023-08-25T12:10:20.420Z,101518.53
2023-08-25T12:15:22.744Z,101509.22
2023-08-25T12:20:25.874Z,101506.31
2023-08-25T12:25:30.208Z,101489.72
2023-08-25T12:30:32.618Z,101500.47
2023-08-25T12:35:35.653Z,101498.97
2023-08-25T12:40:38.476Z,101496.94
2023-08-25T12:45:41.086Z,101502.97
2023-08-25T12:50:43.371Z,101502.91
2023-08-25T12:55:45.662Z,101501.50
2023-08-25T13:00:47.888Z,101492.00
2023-08-25T13:05:50.237Z,101479.59
2023-08-25T13:10:53.045Z,101483.59
2023-08-25T13:15:55.228Z,101474.00
2023-08-25T13:20:57.497Z,101488.16
2023-08-25T13:25:59.767Z,101457.34
2023-08-25T13:31:02.002Z,101424.09
2023-08-25T13:36:07.322Z,101421.88
2023-08-25T13:41:09.506Z,101420.94
2023-08-25T13:46:11.779Z,101411.41
2023-08-25T13:51:14.091Z,101415.94
2023-08-25T13:56:16.330Z,101408.25
2023-08-25T14:01:20.667Z,101407.88
2023-08-25T14:06:23.032Z,101400.97
2023-08-25T14:11:25.300Z,101402.09
2023-08-25T14:16:27.836Z,101402.00
2023-08-25T14:21:30.193Z,101393.78
2023-08-25T14:26:32.557Z,101391.16
2023-08-25T14:31:34.834Z,101380.25
2023-08-25T14:36:37.541Z,101377.81
2023-08-25T14:41:39.821Z,101378.31
2023-08-25T14:46:42.168Z,101379.97
2023-08-25T14:51:44.414Z,101382.56
2023-08-25T14:56:46.790Z,101374.25
2023-08-25T15:01:49.997Z,101366.50
2023-08-25T15:06:52.546Z,101367.34
2023-08-25T15:11:54.714Z,101373.25
2023-08-25T15:16:56.920Z,101365.88
2023-08-25T15:21:59.143Z,101361.09
2023-08-25T15:27:01.454Z,101365.13
2023-08-25T15:32:04.470Z,101366.72
2023-08-25T15:37:06.896Z,101364.00
2023-08-25T15:42:09.227Z,101360.81
2023-08-25T15:47:11.625Z,101362.97
2023-08-25T15:52:13.864Z,101361.25
2023-08-25T15:57:16.057Z,101358.66
2023-08-25T16:02:18.354Z,101364.03
2023-08-25T16:07:20.614Z,101370.31
2023-08-25T16:12:22.827Z,101368.56
2023-08-25T16:17:25.088Z,101367.34
2023-08-25T16:22:27.394Z,101361.38
2023-08-25T16:27:31.384Z,101354.56
2023-08-25T16:32:35.214Z,101353.78
2023-08-25T16:37:37.599Z,101341.91
2023-08-25T16:42:39.889Z,101341.53
2023-08-25T16:47:42.127Z,101324.47
2023-08-25T16:52:44.400Z,101326.66
2023-08-25T16:57:46.967Z,101335.84
2023-08-25T17:02:49.298Z,101331.09
2023-08-25T17:07:52.761Z,101340.41
2023-08-25T17:12:55.409Z,101329.25
2023-08-25T17:17:57.697Z,101334.06
2023-08-25T17:23:00.120Z,101344.56
2023-08-25T17:28:02.656Z,101335.06
2023-08-25T17:33:05.299Z,101350.09
2023-08-25T17:38:08.229Z,101347.63
2023-08-25T17:43:13.095Z,101344.38
2023-08-25T17:48:15.246Z,101345.59
2023-08-25T17:53:18.283Z,101352.81
2023-08-25T17:58:20.786Z,101359.53
2023-08-25T18:03:22.995Z,101373.06
2023-08-25T18:08:25.437Z,101373.88
2023-08-25T18:13:27.833Z,101376.47
2023-08-25T18:18:30.085Z,101387.56
2023-08-25T18:23:32.576Z,101397.13
2023-08-25T18:28:35.172Z,101402.47
2023-08-25T18:33:41.552Z,101409.00
2023-08-25T18:38:43.888Z,101401.06
2023-08-25T18:43:46.106Z,101412.16
2023-08-25T18:48:48.601Z,101421.03
2023-08-25T18:53:50.870Z,101422.81
2023-08-25T18:58:53.124Z,101431.97
2023-08-25T19:03:55.596Z,101446.34
2023-08-25T19:08:57.848Z,101446.72
2023-08-25T19:14:00.045Z,101451.03
2023-08-25T19:19:02.319Z,101453.25
2023-08-25T19:24:05.965Z,101449.34
2023-08-25T19:29:09.621Z,101445.97
2023-08-25T19:34:12.513Z,101454.25
2023-08-25T19:39:15.096Z,101459.56
2023-08-25T19:44:17.735Z,101472.75
2023-08-25T19:49:19.911Z,101469.19
2023-08-25T19:54:22.223Z,101480.59
2023-08-25T19:59:24.637Z,101481.22
2023-08-25T20:04:26.895Z,101476.47
2023-08-25T20:09:29.123Z,101485.63
2023-08-25T20:14:31.535Z,101483.38
2023-08-25T20:19:33.893Z,101495.66
2023-08-25T20:24:36.185Z,101501.59
2023-08-25T20:29:38.407Z,101507.53
2023-08-25T20:34:40.702Z,101499.81
2023-08-25T20:39:43.025Z,101499.97
2023-08-25T20:44:45.206Z,101493.91
2023-08-25T20:49:47.571Z,101495.41
2023-08-25T20:54:49.796Z,101499.13
2023-08-25T20:59:52.333Z,101504.41
2023-08-25T21:04:54.583Z,101504.41
2023-08-25T21:09:56.834Z,101505.59
2023-08-25T21:14:59.184Z,101506.44
2023-08-25T21:20:01.482Z,101505.97
2023-08-25T21:25:04.456Z,101509.69
2023-08-25T21:30:07.328Z,101509.84
2023-08-25T21:35:09.736Z,101511.69
2023-08-25T21:40:12.233Z,101498.38
2023-08-25T21:45:14.620Z,101501.25
2023-08-25T21:50:16.891Z,101502.38
2023-08-25T21:55:19.150Z,101498.88
2023-08-25T22:00:21.427Z,101501.06
2023-08-25T22:05:23.633Z,101502.44
2023-08-25T22:10:26.402Z,101503.81
2023-08-25T22:15:28.665Z,101512.53
2023-08-25T22:20:31.080Z,101506.38
2023-08-25T22:25:33.578Z,101506.41
2023-08-25T22:30:35.779Z,101512.19
2023-08-25T22:35:38.573Z,101516.91
2023-08-25T22:40:40.823Z,101512.06
2023-08-25T22:45:43.011Z,101507.28
2023-08-25T22:50:46.501Z,101526.56
2023-08-25T22:55:48.781Z,101529.63
2023-08-25T23:00:51.601Z,101528.13
2023-08-25T23:05:53.775Z,101540.63
2023-08-25T23:10:55.958Z,101549.38
2023-08-25T23:15:58.395Z,101546.66
2023-08-25T23:21:00.594Z,101534.38
2023-08-25T23:26:02.958Z,101534.41
2023-08-25T23:31:05.186Z,101536.78
2023-08-25T23:36:07.539Z,101534.94
2023-08-25T23:41:09.765Z,101528.00
2023-08-25T23:46:12.086Z,101530.03
2023-08-25T23:51:14.381Z,101530.56
2023-08-25T23:56:16.654Z,101524.50
